Flight Track Log - Related Links

Times and Time Zones

All times are in EDT time to prevent confusion due to time zone crossing. See the CTL311 flight status page for this flight to view local times or setup timezone preferences in your user account.

Time Position Orientation Groundspeed Altitude Reporting Facility
EDT Latitude Longitude Course Direction KTS MPH feet Rate Location/Type
Fri 07:38:00 PM 42.4878 -84.3787 11° North  Level FlightAware Approximate
Fri 07:39:00 PM 42.5276 -84.3677 12° North  Level FlightAware Approximate
Fri 07:40:00 PM 42.5675 -84.3566 12° North  Level FlightAware Approximate
Fri 07:41:00 PM 42.6073 -84.3456 12° North  Level FlightAware Approximate
Fri 07:42:00 PM 42.6472 -84.3345 12° North  Level FlightAware Approximate
Fri 07:43:00 PM 42.6870 -84.3234 12° North  Level FlightAware Approximate
Fri 07:44:00 PM 42.7268 -84.3124 12° North  Level FlightAware Approximate
Fri 07:45:00 PM 42.7667 -84.3013 12° North  Level FlightAware Approximate
Fri 07:46:00 PM 42.8065 -84.2902 12° North  Level FlightAware Approximate
Fri 07:47:00 PM 42.8464 -84.2790 12° North  Level FlightAware Approximate
Fri 07:48:00 PM 42.8862 -84.2679 12° North  Level FlightAware Approximate
Fri 07:49:00 PM 42.9260 -84.2567 12° North  Level FlightAware Approximate
Fri 07:50:00 PM 42.9658 -84.2451 13° North  Level FlightAware Approximate
Fri 07:51:00 PM 43.0054 -84.2327 13° North  Level FlightAware Approximate
Fri 07:52:00 PM 43.0451 -84.2204 13° North  Level FlightAware Approximate
Fri 07:53:00 PM 43.0847 -84.2080 13° North  Level FlightAware Approximate
Fri 07:54:00 PM 43.1244 -84.1956 13° North  Level FlightAware Approximate
Fri 07:55:00 PM 43.1640 -84.1832 13° North  Level FlightAware Approximate
Fri 07:56:00 PM 43.2036 -84.1708 13° North  Level FlightAware Approximate
Fri 07:57:00 PM 43.2432 -84.1578 14° North  Level FlightAware Approximate
Fri 07:58:00 PM 43.2828 -84.1451 13° North  Level FlightAware Approximate
Fri 07:59:00 PM 43.3225 -84.1329 13° North  Level FlightAware Approximate
Fri 08:00:00 PM 43.3621 -84.1207 13° North  Level FlightAware Approximate
Fri 08:01:00 PM 43.4018 -84.1085 13° North  Level FlightAware Approximate
Fri 08:02:00 PM 43.4415 -84.0962 13° North  Level FlightAware Approximate
Fri 08:03:00 PM 43.4812 -84.0840 13° North  Level FlightAware Approximate
Fri 08:04:00 PM 43.5167 -84.0667 20° North  Level FlightAware Approximate
Fri 08:05:00 PM 43.5329 -84.0796 20° North  Level Estimated
Fri 08:06:00 PM 43.5329 -84.0796 20° North  Level Estimated
Fri 08:07:00 PM 43.5329 -84.0796 20° North  Level Estimated
Fri 08:08:00 PM 43.5329 -84.0796 20° North  Level Estimated

Login

Don't have an account? Register now (free) for customized features, flight alerts, and more!